Flight Track Log - Related Links

Times and Time Zones

All times are in EDT time to prevent confusion due to time zone crossing. See the GJS3618 flight status page for this flight to view local times or setup timezone preferences in your user account.

Time Position Orientation Groundspeed Altitude Reporting Facility
EDT Latitude Longitude Course Direction KTS MPH feet Rate Location/Type
Fri 09:57:31 AM 42.0000 -87.9333 26° Northeast 159 183 1,200  Level Chicago TRACON
Fri 09:58:31 AM 42.0500 -87.9000 26° Northeast 237 273 3,300 2,159 Climbing Chicago TRACON
Fri 10:00:15 AM 42.1214 -87.8008 46° Northeast 282 325 7,100 2,422 Climbing Chicago Center
Fri 10:01:17 AM 42.1489 -87.6744 74° East 293 337 10,000 2,419 Climbing Chicago Center
Fri 10:02:19 AM 42.1733 -87.5592 74° East 314 361 12,100 1,935 Climbing Chicago Center
Fri 10:03:21 AM 42.1917 -87.4364 79° East 333 383 14,000 1,694 Climbing Chicago Center
Fri 10:04:23 AM 42.1975 -87.2961 87° East 372 428 15,600 1,805 Climbing Chicago Center
Fri 10:05:24 AM 42.2042 -87.1522 86° East 382 440 17,700 2,049 Climbing Chicago Center
Fri 10:06:26 AM 42.2106 -86.9994 87° East 401 461 19,800 1,839 Climbing Chicago Center
Fri 10:07:28 AM 42.2164 -86.8428 87° East 418 481 21,500 1,839 Climbing Chicago Center
Fri 10:08:30 AM 42.2228 -86.6703 87° East 422 486 23,600 1,694 Climbing Chicago Center
Fri 10:09:32 AM 42.2294 -86.5078 87° East 431 496 25,000 1,403 Climbing Chicago Center
Fri 10:10:34 AM 42.2350 -86.3422 87° East 441 507 26,500 1,306 Climbing Chicago Center
Fri 10:11:36 AM 42.2417 -86.1394 87° East 450 518 27,700 1,065 Climbing Chicago Center
Fri 10:12:38 AM 42.2478 -85.9667 87° East 459 528 28,700 919 Climbing Chicago Center
Fri 10:13:40 AM 42.2517 -85.8056 88° East 469 540 29,600 1,073 Climbing Chicago Center
Fri 10:14:41 AM 42.2578 -85.6289 87° East 472 543 30,900 1,317 Climbing Chicago Center
Fri 10:15:43 AM 42.2642 -85.4169 88° East 476 548 32,300 1,295 Climbing Chicago Center
Fri 10:16:09 AM 42.2733 -85.3600 78° East 483 556 32,800 837 Climbing Cleveland Center
Fri 10:17:09 AM 42.2869 -85.1814 84° East 477 549 33,500 800 Climbing Cleveland Center
Fri 10:18:09 AM 42.3044 -85.0000 83° East 477 549 34,400 1,000 Climbing Cleveland Center
Fri 10:19:09 AM 42.3214 -84.8269 82° East 477 549 35,500 850 Climbing Cleveland Center
Fri 10:20:09 AM 42.3575 -84.6353 76° East 477 549 36,100 600 Climbing Cleveland Center
Fri 10:21:09 AM 42.4128 -84.4869 63° Northeast 477 549 36,700 450 Climbing Cleveland Center
Fri 10:22:09 AM 42.4581 -84.3153 70° East 477 549 37,000 150 Climbing Cleveland Center
Fri 10:23:09 AM 42.4950 -84.1344 74° East 477 549 37,000  Level Cleveland Center
Fri 10:24:09 AM 42.5092 -83.9408 84° East 491 565 37,000  Level Cleveland Center
Fri 10:25:09 AM 42.5250 -83.7472 84° East 513 590 37,000  Level Cleveland Center
Fri 10:26:09 AM 42.5367 -83.5506 85° East 518 596 37,000  Level Cleveland Center
Fri 10:27:09 AM 42.5497 -83.3594 85° East 518 596 37,000  Level Cleveland Center
Fri 10:28:09 AM 42.5606 -83.1653 86° East 518 596 37,000  Level Cleveland Center
Fri 10:29:09 AM 42.5708 -82.9711 86° East 518 596 37,000  Level Cleveland Center
Fri 10:30:09 AM 42.5831 -82.7800 85° East 518 596 37,000  Level Cleveland Center
Fri 10:31:09 AM 42.5950 -82.5828 85° East 518 596 37,000  Level Cleveland Center
Fri 10:32:09 AM 42.6044 -82.3914 86° East 518 596 37,000  Level Cleveland Center
Fri 10:33:09 AM 42.6136 -82.1969 86° East 518 596 37,000  Level Cleveland Center
Fri 10:34:09 AM 42.6244 -82.0053 86° East 518 596 37,000  Level Cleveland Center
Fri 10:35:09 AM 42.6350 -81.8081 86° East 518 596 37,000  Level Cleveland Center
Fri 10:36:09 AM 42.6453 -81.5994 86° East 513 590 37,000  Level Cleveland Center
Fri 10:37:09 AM 42.6553 -81.4075 86° East 513 590 37,000  Level Cleveland Center
Fri 10:38:09 AM 42.6628 -81.2128 87° East 513 590 37,000  Level Cleveland Center
Fri 10:39:09 AM 42.6719 -81.0208 86° East 516 594 37,000  Level Cleveland Center
Fri 10:40:09 AM 42.6808 -80.8317 86° East 516 594 37,000  Level Cleveland Center
Fri 10:41:09 AM 42.6894 -80.6311 87° East 522 601 37,000  Level Cleveland Center
Fri 10:42:09 AM 42.6956 -80.4589 87° East 516 594 37,000  Level Cleveland Center
Fri 10:43:09 AM 42.7017 -80.2667 87° East 506 582 37,000  Level Cleveland Center
Fri 10:44:09 AM 42.7092 -80.0747 87° East 506 582 37,000  Level Cleveland Center
Fri 10:45:09 AM 42.7186 -79.8822 86° East 506 582 37,000 -500 Level Cleveland Center
Fri 10:46:09 AM 42.7236 -79.6900 88° East 506 582 36,000 -1,300 Descending Cleveland Center
Fri 10:47:09 AM 42.7281 -79.4978 88° East 506 582 34,400 -1,500 Descending Cleveland Center
Fri 10:48:09 AM 42.7325 -79.3083 88° East 500 575 33,000 -950 Descending Cleveland Center
Fri 10:49:09 AM 42.7364 -79.1189 88° East 500 575 32,500 -750 Descending Cleveland Center
Fri 10:50:09 AM 42.7422 -78.9294 88° East 500 575 31,500 -750 Descending Cleveland Center
Fri 10:51:09 AM 42.7456 -78.7397 89° East 494 568 31,000 -250 Descending Cleveland Center
Fri 10:52:09 AM 42.7508 -78.5503 88° East 500 575 31,000  Level Cleveland Center
Fri 10:53:09 AM 42.7556 -78.3606 88° East 500 575 31,000  Level Cleveland Center
Fri 10:54:09 AM 42.7561 -78.1739 90° East 495 570 31,000  Level Cleveland Center
Fri 10:55:09 AM 42.7606 -77.9928 88° East 495 570 31,000  Level Cleveland Center
Fri 10:56:09 AM 42.7644 -77.8089 88° East 490 564 31,000  Level Cleveland Center
Fri 10:57:09 AM 42.7683 -77.6275 88° East 485 558 31,000 -456 Level Cleveland Center
Fri 10:59:00 AM 42.7694 -77.3058 90° East 474 545 29,700 -710 Descending Boston Center
Fri 10:59:58 AM 42.7706 -77.1306 89° East 469 540 29,000 -353 Descending Boston Center
Fri 11:00:59 AM 42.7714 -76.9578 90° East 464 534 29,000  Level Boston Center
Fri 11:02:00 AM 42.7736 -76.7883 89° East 458 527 29,000  Level Boston Center
Fri 11:02:58 AM 42.7736 -76.6214 90° East 453 521 29,000 -102 Level Boston Center
Fri 11:03:58 AM 42.7736 -76.4486 90° East 453 521 28,800 -900 Descending Boston Center
Fri 11:04:58 AM 42.7753 -76.2817 89° East 453 521 27,200 -1,636 Descending Boston Center
Fri 11:06:10 AM 42.7742 -76.0611 90° East 448 516 25,200 -1,579 Descending Boston Center
Fri 11:07:11 AM 42.7606 -75.8933 96° East 443 510 23,700 -1,574 Descending Boston Center
Fri 11:08:12 AM 42.7447 -75.7311 98° East 438 504 22,000 -1,714 Descending Boston Center
Fri 11:09:10 AM 42.7303 -75.5750 97° East 430 495 20,300 -1,714 Descending Boston Center
Fri 11:10:11 AM 42.7158 -75.4186 97° East 417 480 18,600 -1,721 Descending Boston Center
Fri 11:11:12 AM 42.7008 -75.2653 98° East 417 480 16,800 -1,765 Descending Boston Center
Fri 11:12:10 AM 42.7086 -75.1161 86° East 391 450 15,100 -1,729 Descending Boston Center
Fri 11:13:10 AM 42.7411 -74.9731 73° East 391 450 13,400 -1,603 Descending Boston Center
Fri 11:14:06 AM 42.7769 -74.8531 68° East 382 440 12,000 -1,650 Descending Boston Center
Fri 11:14:30 AM 42.7847 -74.7883 81° East 369 425 11,200 -985 Descending Boston Center
Fri 11:15:13 AM 42.7989 -74.7011 77° East 368 423 10,900 -197 Descending Boston Center
Fri 11:15:31 AM 42.8061 -74.6561 78° East 350 403 11,000  Climbing Boston Center
Fri 11:16:10 AM 42.8181 -74.5800 78° East 358 412 10,900 -182 Descending Boston Center
Fri 11:17:10 AM 42.8394 -74.4336 79° East 364 419 10,700 -293 Descending Boston Center
Fri 11:17:32 AM 42.8464 -74.3856 79° East 366 421 10,500 -787 Descending Boston Center
Fri 11:18:11 AM 42.8558 -74.3208 79° East 345 397 9,900 -1,364 Descending Boston Center
Fri 11:18:38 AM 42.8653 -74.2586 78° East 307 353 9,000 -1,770 Descending Boston Center
Fri 11:19:12 AM 42.8747 -74.1911 79° East 321 369 8,100 -1,672 Descending Boston Center
Fri 11:19:39 AM 42.8817 -74.1372 80° East 316 364 7,300 -1,400 Descending Boston Center
Fri 11:20:12 AM 42.8886 -74.0864 79° East 309 356 6,700 -1,333 Descending Boston Center
Fri 11:20:33 AM 42.8978 -74.0386 75° East 287 330 6,100 -1,655 Descending Boston Center
Fri 11:21:10 AM 42.9047 -73.9792 81° East 282 325 5,100 -1,452 Descending Boston Center
Fri 11:21:35 AM 42.9094 -73.9425 80° East 235 270 4,600 -1,082 Descending Boston Center
Fri 11:22:11 AM 42.9119 -73.9028 85° East 237 273 4,000 -1,180 Descending Boston Center
Fri 11:22:36 AM 42.9186 -73.8661 76° East 194 223 3,400 -1,377 Descending Boston Center
Fri 11:23:12 AM 42.9067 -73.8292 114° Southeast 186 214 2,600 -1,180 Descending Boston Center
Fri 11:23:37 AM 42.8903 -73.8144 147° Southeast 169 194 2,200 -621 Descending Boston Center
Fri 11:24:10 AM 42.8694 -73.8083 168° South 147 169 2,000 -197 Descending Boston Center
Fri 11:24:38 AM 42.8464 -73.8136 190° South 160 184 2,000 16,721 Level Boston Center
Fri 11:25:11 AM 42.8556 -73.7400 80° East 147 169 19,000 -600 Climbing Boston Center
Fri 11:25:38 AM 42.8089 -73.8100 228° Southwest 122 140 1,400  Descending Boston Center
Fri 11:26:12 AM 42.8353 -73.6914 73° East 147 169 19,000 -689 Climbing Boston Center
Fri 11:26:39 AM 42.7756 -73.8064 235° Southwest 116 133 700  Descending Boston Center
Fri 11:27:12 AM 42.8150 -73.6403 72° East 147 169 19,000 11,806 Climbing Boston Center
Fri 11:28:12 AM 42.7947 -73.5917 120° Southeast 147 169 19,000  Level Boston Center
Fri 11:30:00 AM 42.7491 -73.8020 254° West  Level Estimated

Login

Don't have an account? Register now (free) for customized features, flight alerts, and more!